Time;durP1;ratioP1;P1;durP2;ratioP2;P2;SDS_P1;SDS_P2;PMS_P1;PMS_P2;Temp;Humidity;BMP_temperature;BMP_pressure;BME280_temperature;BME280_humidity;BME280_pressure;Samples;Min_cycle;Max_cycle;Signal;HPM_P1;HPM_P2
2024/04/16 00:01:31;;;;;;;14.45;2.35;;;;;;;;;;11420470;25;20536;-59
2024/04/16 00:06:39;;;;;;;14.63;2.55;;;;;;;;;;11390937;25;20852;-58
2024/04/16 00:11:48;;;;;;;13.50;1.92;;;;;;;;;;11397733;25;20049;-62
2024/04/16 00:16:53;;;;;;;20.83;3.60;;;;;;;;;;11399417;25;20368;-59
2024/04/16 00:21:58;;;;;;;14.73;2.50;;;;;;;;;;11395130;25;20009;-57
2024/04/16 00:27:09;;;;;;;12.65;1.98;;;;;;;;;;11397642;25;20005;-59
2024/04/16 00:32:17;;;;;;;15.98;2.35;;;;;;;;;;11392896;25;20052;-59
2024/04/16 00:37:21;;;;;;;10.25;1.00;;;;;;;;;;11386509;25;20020;-59
2024/04/16 00:42:28;;;;;;;9.77;2.35;;;;;;;;;;11386637;25;20002;-59
2024/04/16 00:47:33;;;;;;;11.52;2.97;;;;;;;;;;11399658;25;20643;-61
2024/04/16 00:52:38;;;;;;;5.05;1.38;;;;;;;;;;11396751;25;20052;-58
2024/04/16 00:57:53;;;;;;;10.15;1.40;;;;;;;;;;11394938;25;20572;-60
2024/04/16 01:02:57;;;;;;;15.95;2.50;;;;;;;;;;11389357;25;20098;-58
2024/04/16 01:08:04;;;;;;;13.90;2.35;;;;;;;;;;11378172;25;20350;-59
2024/04/16 01:13:13;;;;;;;8.27;1.63;;;;;;;;;;11390752;25;20017;-61
2024/04/16 01:18:23;;;;;;;8.77;0.90;;;;;;;;;;11381438;25;20018;-57
2024/04/16 01:23:32;;;;;;;11.45;1.45;;;;;;;;;;11380231;25;20087;-61
2024/04/16 01:28:40;;;;;;;7.57;1.30;;;;;;;;;;11389523;25;20017;-58
2024/04/16 01:33:44;;;;;;;9.18;1.17;;;;;;;;;;11394220;25;20024;-60
2024/04/16 01:38:55;;;;;;;17.13;1.65;;;;;;;;;;11385803;25;20942;-60
2024/04/16 01:44:03;;;;;;;11.15;2.03;;;;;;;;;;11391040;25;20084;-61
2024/04/16 01:49:07;;;;;;;18.63;2.72;;;;;;;;;;11377056;25;20026;-59
2024/04/16 01:54:14;;;;;;;11.15;2.30;;;;;;;;;;11403355;25;20009;-60
2024/04/16 01:59:19;;;;;;;22.00;2.67;;;;;;;;;;11408819;25;20103;-60
2024/04/16 02:04:27;;;;;;;17.83;3.35;;;;;;;;;;11397393;25;20016;-60
2024/04/16 02:09:43;;;;;;;14.63;2.17;;;;;;;;;;11402986;25;20102;-60
2024/04/16 02:14:53;;;;;;;16.15;2.53;;;;;;;;;;11406830;25;20038;-59
2024/04/16 02:19:57;;;;;;;11.95;1.83;;;;;;;;;;11399985;25;20021;-62
2024/04/16 02:25:10;;;;;;;12.13;2.70;;;;;;;;;;11407503;25;20492;-60
2024/04/16 02:30:15;;;;;;;9.32;2.72;;;;;;;;;;11400699;25;20009;-60
2024/04/16 02:35:22;;;;;;;11.68;2.53;;;;;;;;;;11403419;25;20028;-61
2024/04/16 02:40:31;;;;;;;9.20;1.48;;;;;;;;;;11392667;25;20020;-58
2024/04/16 02:45:39;;;;;;;11.55;2.75;;;;;;;;;;11406329;25;20106;-59
2024/04/16 02:50:43;;;;;;;16.75;2.88;;;;;;;;;;11401423;25;20861;-57
2024/04/16 02:55:50;;;;;;;11.05;3.13;;;;;;;;;;11401598;25;20464;-59
2024/04/16 03:00:57;;;;;;;14.65;2.72;;;;;;;;;;11395272;25;20566;-60
2024/04/16 03:06:02;;;;;;;22.67;4.40;;;;;;;;;;11397902;25;20452;-60
2024/04/16 03:11:11;;;;;;;12.70;2.13;;;;;;;;;;11399549;25;20018;-61
2024/04/16 03:16:15;;;;;;;14.80;1.30;;;;;;;;;;11399458;25;20005;-60
2024/04/16 03:21:20;;;;;;;4.55;1.15;;;;;;;;;;11407444;25;20017;-60
2024/04/16 03:26:28;;;;;;;6.32;1.00;;;;;;;;;;11406158;25;20017;-61
2024/04/16 03:31:34;;;;;;;0.10;0.10;;;;;;;;;;11406871;25;20006;-61
2024/04/16 03:36:39;;;;;;;0.10;0.10;;;;;;;;;;11393821;25;20018;-60
2024/04/16 03:41:49;;;;;;;0.20;0.20;;;;;;;;;;11398728;25;20214;-60
2024/04/16 03:46:56;;;;;;;1.02;1.00;;;;;;;;;;11394959;25;20017;-62
2024/04/16 03:52:03;;;;;;;0.10;0.10;;;;;;;;;;11397754;25;20020;-59
2024/04/16 03:57:10;;;;;;;0.20;0.20;;;;;;;;;;11395626;25;20354;-61
2024/04/16 04:02:19;;;;;;;2.28;0.35;;;;;;;;;;11406519;25;20350;-60
2024/04/16 04:07:26;;;;;;;0.15;0.15;;;;;;;;;;11397164;25;20005;-59
2024/04/16 04:12:37;;;;;;;0.10;0.10;;;;;;;;;;11390785;25;20013;-60
2024/04/16 04:17:41;;;;;;;0.20;0.20;;;;;;;;;;11389868;25;20028;-59
2024/04/16 04:22:48;;;;;;;0.47;0.47;;;;;;;;;;11394066;25;20020;-60
2024/04/16 04:27:55;;;;;;;0.30;0.30;;;;;;;;;;11384125;25;20009;-58
2024/04/16 04:33:05;;;;;;;0.10;0.10;;;;;;;;;;11394390;25;20020;-59
2024/04/16 04:38:12;;;;;;;21.02;2.80;;;;;;;;;;11384267;25;20105;-60
2024/04/16 04:43:19;;;;;;;18.20;1.10;;;;;;;;;;11403585;25;20061;-59
2024/04/16 04:48:32;;;;;;;19.67;4.32;;;;;;;;;;11389487;25;20028;-60
2024/04/16 04:53:39;;;;;;;32.20;3.55;;;;;;;;;;11407430;25;20309;-56
2024/04/16 04:58:46;;;;;;;36.25;6.05;;;;;;;;;;11401041;25;20098;-60
2024/04/16 05:03:52;;;;;;;27.75;3.25;;;;;;;;;;11396714;25;20025;-60
2024/04/16 05:08:56;;;;;;;19.15;3.22;;;;;;;;;;11382103;25;20052;-59
2024/04/16 05:14:07;;;;;;;31.02;5.53;;;;;;;;;;11390359;25;20013;-61
2024/04/16 05:19:11;;;;;;;21.48;2.63;;;;;;;;;;11390515;25;20037;-59
2024/04/16 05:24:15;;;;;;;17.38;2.53;;;;;;;;;;11384474;25;20795;-60
2024/04/16 05:29:22;;;;;;;17.63;2.67;;;;;;;;;;11380355;25;20005;-59
2024/04/16 05:34:26;;;;;;;29.35;3.83;;;;;;;;;;11406768;25;20017;-61
2024/04/16 05:39:33;;;;;;;0.10;0.10;;;;;;;;;;11381236;25;20493;-61
2024/04/16 05:44:40;;;;;;;0.10;0.10;;;;;;;;;;11399444;25;20576;-60
2024/04/16 05:49:46;;;;;;;16.83;2.85;;;;;;;;;;11398749;25;20015;-61
2024/04/16 05:54:50;;;;;;;1.55;1.45;;;;;;;;;;11393330;25;20020;-59
2024/04/16 06:00:00;;;;;;;0.30;0.20;;;;;;;;;;11379610;25;20010;-61
2024/04/16 06:05:05;;;;;;;0.10;0.10;;;;;;;;;;11392054;25;20006;-60
2024/04/16 06:10:10;;;;;;;4.18;1.55;;;;;;;;;;11398771;25;20021;-60
2024/04/16 06:15:22;;;;;;;0.10;0.10;;;;;;;;;;11392664;25;20018;-61
2024/04/16 06:20:26;;;;;;;0.52;0.30;;;;;;;;;;11386577;25;20037;-59
2024/04/16 06:25:31;;;;;;;24.30;4.22;;;;;;;;;;11399992;25;20066;-59
2024/04/16 06:30:38;;;;;;;23.30;3.90;;;;;;;;;;11398067;25;20556;-60
2024/04/16 06:35:42;;;;;;;20.50;3.00;;;;;;;;;;11386722;25;20150;-61
2024/04/16 06:40:46;;;;;;;20.50;3.28;;;;;;;;;;11381033;25;20017;-60
2024/04/16 06:45:53;;;;;;;15.95;2.67;;;;;;;;;;11384117;25;20021;-60
2024/04/16 06:50:58;;;;;;;33.38;3.80;;;;;;;;;;11375570;25;20040;-61
2024/04/16 06:56:02;;;;;;;39.50;5.70;;;;;;;;;;11384131;25;20447;-60
2024/04/16 07:01:10;;;;;;;22.70;3.15;;;;;;;;;;11386429;25;20010;-61
2024/04/16 07:06:15;;;;;;;15.00;3.50;;;;;;;;;;11373684;25;20021;-60
2024/04/16 07:11:23;;;;;;;16.45;3.47;;;;;;;;;;11389287;25;20008;-60
2024/04/16 07:16:31;;;;;;;16.25;3.42;;;;;;;;;;11380267;25;20123;-58
2024/04/16 07:21:35;;;;;;;22.02;3.40;;;;;;;;;;11387694;25;20015;-61
2024/04/16 07:26:40;;;;;;;20.80;2.45;;;;;;;;;;11385182;25;20025;-61
2024/04/16 07:31:46;;;;;;;24.42;4.60;;;;;;;;;;11379117;25;20534;-59
2024/04/16 07:36:53;;;;;;;22.73;2.95;;;;;;;;;;11370012;25;20021;-60
2024/04/16 07:41:58;;;;;;;13.18;2.05;;;;;;;;;;11386993;25;20009;-59
2024/04/16 07:47:07;;;;;;;16.73;1.95;;;;;;;;;;11382486;25;20067;-60
2024/04/16 07:52:14;;;;;;;20.42;3.00;;;;;;;;;;11386073;25;20074;-59
2024/04/16 07:57:23;;;;;;;23.27;4.10;;;;;;;;;;11384279;25;20417;-60
2024/04/16 08:02:30;;;;;;;22.10;3.53;;;;;;;;;;11386566;25;20008;-59
2024/04/16 08:07:38;;;;;;;18.95;3.75;;;;;;;;;;11384178;25;20032;-60
2024/04/16 08:12:44;;;;;;;19.77;3.45;;;;;;;;;;11387651;25;20105;-59
2024/04/16 08:17:52;;;;;;;17.88;3.45;;;;;;;;;;11392821;25;20013;-60
2024/04/16 08:22:56;;;;;;;11.88;3.40;;;;;;;;;;11378185;25;20017;-62
2024/04/16 08:28:01;;;;;;;21.42;3.97;;;;;;;;;;11381758;25;20097;-60
2024/04/16 08:33:14;;;;;;;8.82;2.22;;;;;;;;;;11378501;25;20447;-62
2024/04/16 08:38:19;;;;;;;18.52;2.97;;;;;;;;;;11379528;25;20631;-59
2024/04/16 08:43:23;;;;;;;22.67;3.17;;;;;;;;;;11384873;25;20478;-61
2024/04/16 08:48:40;;;;;;;8.73;2.28;;;;;;;;;;11385292;25;20064;-60
2024/04/16 08:53:44;;;;;;;11.38;1.95;;;;;;;;;;11381766;25;20090;-60
2024/04/16 08:58:49;;;;;;;22.00;2.40;;;;;;;;;;11390661;25;21284;-61
2024/04/16 09:03:59;;;;;;;17.85;2.05;;;;;;;;;;11376907;25;20112;-60
2024/04/16 09:09:07;;;;;;;12.52;2.25;;;;;;;;;;11391567;25;20560;-61
2024/04/16 09:14:11;;;;;;;27.55;2.95;;;;;;;;;;11384147;25;20001;-62
2024/04/16 09:19:20;;;;;;;18.85;2.50;;;;;;;;;;11404931;25;20092;-60
2024/04/16 09:24:25;;;;;;;21.25;4.57;;;;;;;;;;11390254;25;20010;-61
2024/04/16 09:29:31;;;;;;;16.65;2.70;;;;;;;;;;11385958;25;20062;-58
2024/04/16 09:34:47;;;;;;;17.90;3.00;;;;;;;;;;11382894;25;20769;-59
2024/04/16 09:39:55;;;;;;;28.52;2.95;;;;;;;;;;11386996;25;20081;-59
2024/04/16 09:45:00;;;;;;;12.18;2.35;;;;;;;;;;11360675;25;20009;-60
2024/04/16 09:50:09;;;;;;;7.53;2.05;;;;;;;;;;11378973;25;20016;-57
2024/04/16 09:55:14;;;;;;;15.05;2.47;;;;;;;;;;11397830;25;20010;-60
2024/04/16 10:00:18;;;;;;;7.78;1.80;;;;;;;;;;11389450;25;20010;-61
2024/04/16 10:05:25;;;;;;;14.55;2.00;;;;;;;;;;11391014;25;20876;-60
2024/04/16 10:10:29;;;;;;;15.00;1.95;;;;;;;;;;11393154;25;20243;-58
2024/04/16 10:15:35;;;;;;;19.25;3.72;;;;;;;;;;11397649;25;20006;-59
2024/04/16 10:20:50;;;;;;;22.15;2.65;;;;;;;;;;11406304;25;20508;-60
2024/04/16 10:26:00;;;;;;;16.10;2.22;;;;;;;;;;11395842;25;20006;-60
2024/04/16 10:31:05;;;;;;;15.55;2.95;;;;;;;;;;11385768;25;20793;-59
2024/04/16 10:36:17;;;;;;;23.77;3.58;;;;;;;;;;11398616;25;20009;-57
2024/04/16 10:41:28;;;;;;;0.10;0.10;;;;;;;;;;11399416;25;20005;-60
2024/04/16 10:46:33;;;;;;;0.10;0.10;;;;;;;;;;11384606;25;20535;-60
2024/04/16 10:51:40;;;;;;;0.10;0.10;;;;;;;;;;11386231;25;20065;-58
2024/04/16 10:56:50;;;;;;;0.15;0.15;;;;;;;;;;11392666;25;20124;-60
2024/04/16 11:01:54;;;;;;;0.10;0.10;;;;;;;;;;11379202;25;20018;-62
2024/04/16 11:07:01;;;;;;;0.20;0.20;;;;;;;;;;11375633;25;20057;-61
2024/04/16 11:12:10;;;;;;;1.05;0.98;;;;;;;;;;11381960;25;20017;-59
2024/04/16 11:17:14;;;;;;;0.70;0.70;;;;;;;;;;11385780;25;20009;-58
2024/04/16 11:22:24;;;;;;;0.10;0.10;;;;;;;;;;11388249;25;21269;-60
2024/04/16 11:27:30;;;;;;;0.10;0.10;;;;;;;;;;11397109;25;20005;-59
2024/04/16 11:32:38;;;;;;;0.10;0.10;;;;;;;;;;11385950;25;20012;-58
2024/04/16 11:37:47;;;;;;;0.10;0.10;;;;;;;;;;11398426;25;20017;-60
2024/04/16 11:42:51;;;;;;;0.10;0.10;;;;;;;;;;11396655;25;20016;-60
2024/04/16 11:47:58;;;;;;;0.10;0.10;;;;;;;;;;11387008;25;20101;-60
2024/04/16 11:53:08;;;;;;;0.10;0.10;;;;;;;;;;11395122;25;20009;-59
2024/04/16 11:58:14;;;;;;;0.20;0.20;;;;;;;;;;11392826;25;20029;-59
2024/04/16 12:03:20;;;;;;;0.10;0.10;;;;;;;;;;11384009;25;20083;-58
2024/04/16 12:08:27;;;;;;;0.10;0.10;;;;;;;;;;11400985;25;20930;-60
2024/04/16 12:13:37;;;;;;;0.10;0.10;;;;;;;;;;11395532;25;20018;-61
2024/04/16 12:18:41;;;;;;;14.40;2.15;;;;;;;;;;11394393;25;20025;-58
2024/04/16 12:23:50;;;;;;;9.07;1.50;;;;;;;;;;11393656;25;20538;-60
2024/04/16 12:28:58;;;;;;;5.45;1.13;;;;;;;;;;11381670;25;20097;-58
2024/04/16 12:34:03;;;;;;;17.63;2.90;;;;;;;;;;11395635;25;20009;-60
2024/04/16 12:39:11;;;;;;;6.35;1.10;;;;;;;;;;11394571;25;20005;-60
2024/04/16 12:44:15;;;;;;;11.18;2.42;;;;;;;;;;11387969;25;20103;-59
2024/04/16 12:49:19;;;;;;;22.70;2.72;;;;;;;;;;11387984;25;20345;-61
2024/04/16 12:54:28;;;;;;;8.32;1.67;;;;;;;;;;11395041;25;20256;-58
2024/04/16 12:59:33;;;;;;;4.75;1.23;;;;;;;;;;11402075;25;20016;-60
2024/04/16 13:04:38;;;;;;;17.08;2.15;;;;;;;;;;11386555;25;20122;-61
2024/04/16 13:09:51;;;;;;;20.60;3.45;;;;;;;;;;11392040;25;20837;-60
2024/04/16 13:14:55;;;;;;;12.20;1.90;;;;;;;;;;11388705;25;21098;-60
2024/04/16 13:20:02;;;;;;;13.32;1.80;;;;;;;;;;11391092;25;20413;-59
2024/04/16 13:25:09;;;;;;;16.27;2.70;;;;;;;;;;11397481;25;20056;-59
2024/04/16 13:30:16;;;;;;;6.78;1.50;;;;;;;;;;11396000;25;20032;-57
2024/04/16 13:35:21;;;;;;;12.38;1.58;;;;;;;;;;11372703;25;20077;-60
2024/04/16 13:40:28;;;;;;;12.13;2.25;;;;;;;;;;11378088;25;20017;-59
2024/04/16 13:45:33;;;;;;;14.63;1.40;;;;;;;;;;11367998;25;20090;-59
2024/04/16 13:50:41;;;;;;;11.23;1.83;;;;;;;;;;11377563;25;20916;-60
2024/04/16 13:55:48;;;;;;;9.15;1.73;;;;;;;;;;11390582;25;20006;-60
2024/04/16 14:00:56;;;;;;;5.72;1.67;;;;;;;;;;11393745;25;20534;-60
2024/04/16 14:06:04;;;;;;;11.80;1.75;;;;;;;;;;11395427;25;20019;-61
2024/04/16 14:11:12;;;;;;;4.65;1.63;;;;;;;;;;11403123;25;20007;-61
2024/04/16 14:16:16;;;;;;;8.93;1.73;;;;;;;;;;11400349;25;20009;-61
2024/04/16 14:21:21;;;;;;;10.60;1.02;;;;;;;;;;11392112;25;20103;-57
2024/04/16 14:26:28;;;;;;;0.10;0.10;;;;;;;;;;11394623;25;20008;-59
2024/04/16 14:31:35;;;;;;;0.00;0.00;;;;;;;;;;11393816;25;20016;-59
2024/04/16 14:36:43;;;;;;;0.10;0.10;;;;;;;;;;11379735;25;20074;-59
2024/04/16 14:41:51;;;;;;;0.00;0.00;;;;;;;;;;11394947;25;20017;-61
2024/04/16 14:46:58;;;;;;;0.00;0.00;;;;;;;;;;11404814;25;20004;-61
2024/04/16 14:52:08;;;;;;;0.90;0.82;;;;;;;;;;11390286;25;21321;-60
2024/04/16 14:57:17;;;;;;;0.00;0.00;;;;;;;;;;11375697;25;20005;-61
2024/04/16 15:02:22;;;;;;;0.10;0.10;;;;;;;;;;11394069;25;20058;-61
2024/04/16 15:07:27;;;;;;;0.05;0.05;;;;;;;;;;11375338;25;20009;-62
2024/04/16 15:12:37;;;;;;;0.00;0.00;;;;;;;;;;11357631;25;20140;-61
2024/04/16 15:17:41;;;;;;;0.00;0.00;;;;;;;;;;11384758;25;20021;-62
2024/04/16 15:22:46;;;;;;;2.25;0.75;;;;;;;;;;11382132;25;19998;-61
2024/04/16 15:27:56;;;;;;;0.10;0.10;;;;;;;;;;11390432;25;20754;-63
2024/04/16 15:33:01;;;;;;;0.80;0.80;;;;;;;;;;11377213;25;20029;-62
2024/04/16 15:38:05;;;;;;;0.00;0.00;;;;;;;;;;11390448;25;20099;-60
2024/04/16 15:43:12;;;;;;;0.00;0.00;;;;;;;;;;11391286;25;20060;-61
2024/04/16 15:48:16;;;;;;;0.03;0.03;;;;;;;;;;11392856;25;20130;-61
2024/04/16 15:53:23;;;;;;;0.20;0.20;;;;;;;;;;11396077;25;20486;-60
2024/04/16 15:58:30;;;;;;;0.00;0.00;;;;;;;;;;11396778;25;20094;-62
2024/04/16 16:03:34;;;;;;;0.10;0.10;;;;;;;;;;11383293;25;20910;-62
2024/04/16 16:08:40;;;;;;;0.08;0.08;;;;;;;;;;11388949;25;20016;-62
2024/04/16 16:13:51;;;;;;;0.03;0.03;;;;;;;;;;11390480;25;20065;-62
2024/04/16 16:18:55;;;;;;;0.10;0.10;;;;;;;;;;11371856;25;20090;-61
2024/04/16 16:23:59;;;;;;;7.80;2.72;;;;;;;;;;11373809;25;20337;-63
2024/04/16 16:29:08;;;;;;;7.25;2.90;;;;;;;;;;11383598;25;20153;-62
2024/04/16 16:34:13;;;;;;;11.57;2.38;;;;;;;;;;11373374;25;20056;-61
2024/04/16 16:39:17;;;;;;;18.02;3.83;;;;;;;;;;11380269;25;20868;-58
2024/04/16 16:44:24;;;;;;;10.05;2.33;;;;;;;;;;11378657;25;20028;-64
2024/04/16 16:49:29;;;;;;;6.53;1.50;;;;;;;;;;11389372;25;20019;-57
2024/04/16 16:54:33;;;;;;;7.88;1.33;;;;;;;;;;11387367;25;20037;-64
2024/04/16 16:59:43;;;;;;;11.82;2.38;;;;;;;;;;11382657;25;20077;-61
2024/04/16 17:04:48;;;;;;;7.28;1.45;;;;;;;;;;11383622;25;20046;-61
2024/04/16 17:09:54;;;;;;;6.80;1.00;;;;;;;;;;11405749;25;20017;-62
2024/04/16 17:15:04;;;;;;;14.23;1.80;;;;;;;;;;11390234;25;20017;-62
2024/04/16 17:20:09;;;;;;;20.48;2.55;;;;;;;;;;11399869;25;20742;-62
2024/04/16 17:25:22;;;;;;;20.05;2.67;;;;;;;;;;11407865;25;20045;-60
2024/04/16 17:30:31;;;;;;;11.70;2.10;;;;;;;;;;11366078;25;20019;-62
2024/04/16 17:35:41;;;;;;;14.35;1.58;;;;;;;;;;11376655;25;20032;-63
2024/04/16 17:40:45;;;;;;;21.08;2.67;;;;;;;;;;11398249;25;20356;-61
2024/04/16 17:45:52;;;;;;;12.18;2.35;;;;;;;;;;11399903;25;20034;-63
2024/04/16 17:51:03;;;;;;;15.13;2.60;;;;;;;;;;11395540;25;20052;-61
2024/04/16 17:56:12;;;;;;;12.30;2.50;;;;;;;;;;11399337;25;20017;-62
2024/04/16 18:01:19;;;;;;;4.95;1.20;;;;;;;;;;11393688;25;20020;-61
2024/04/16 18:06:24;;;;;;;5.97;1.33;;;;;;;;;;11387583;25;20012;-60
2024/04/16 18:11:30;;;;;;;13.13;1.95;;;;;;;;;;11389884;25;20755;-60
2024/04/16 18:16:38;;;;;;;10.52;2.30;;;;;;;;;;11391959;25;20029;-62
2024/04/16 18:21:42;;;;;;;11.48;1.80;;;;;;;;;;11388780;25;20030;-63
2024/04/16 18:26:46;;;;;;;13.65;2.45;;;;;;;;;;11387570;25;20025;-61
2024/04/16 18:31:55;;;;;;;13.13;2.63;;;;;;;;;;11394224;25;20442;-62
2024/04/16 18:37:03;;;;;;;10.30;2.05;;;;;;;;;;11383472;25;20009;-62
2024/04/16 18:42:09;;;;;;;12.50;1.88;;;;;;;;;;11386160;25;20127;-60
2024/04/16 18:47:20;;;;;;;11.77;1.40;;;;;;;;;;11385742;25;20017;-62
2024/04/16 18:52:27;;;;;;;10.68;2.10;;;;;;;;;;11382463;25;20006;-62
2024/04/16 18:57:35;;;;;;;7.63;1.63;;;;;;;;;;11360090;25;20487;-61
2024/04/16 19:02:43;;;;;;;7.00;1.33;;;;;;;;;;11382516;25;20022;-61
2024/04/16 19:07:54;;;;;;;5.57;1.67;;;;;;;;;;11386270;25;20006;-62
2024/04/16 19:13:04;;;;;;;7.75;2.00;;;;;;;;;;11376601;25;20839;-61
2024/04/16 19:18:14;;;;;;;11.55;1.02;;;;;;;;;;11389450;25;20038;-62
2024/04/16 19:23:23;;;;;;;15.93;1.70;;;;;;;;;;11386488;25;20074;-62
2024/04/16 19:28:28;;;;;;;11.40;1.92;;;;;;;;;;11387356;25;20920;-61
2024/04/16 19:33:40;;;;;;;2.63;0.77;;;;;;;;;;11393105;25;20891;-61
2024/04/16 19:38:48;;;;;;;7.07;1.37;;;;;;;;;;11379739;25;20045;-62
2024/04/16 19:43:58;;;;;;;3.17;0.70;;;;;;;;;;11387864;25;20074;-63
2024/04/16 19:49:10;;;;;;;6.85;1.15;;;;;;;;;;11394754;25;20009;-61
2024/04/16 19:54:15;;;;;;;;;;;;;;;;;;11388153;25;20005;-59
2024/04/16 19:59:26;;;;;;;10.68;1.50;;;;;;;;;;11413415;25;19924;-63
2024/04/16 20:04:42;;;;;;;8.30;1.27;;;;;;;;;;11388816;25;20001;-62
2024/04/16 20:09:53;;;;;;;2.80;0.88;;;;;;;;;;11402819;25;20552;-62
2024/04/16 20:14:57;;;;;;;10.05;1.88;;;;;;;;;;11384177;25;20019;-59
2024/04/16 20:20:06;;;;;;;11.20;1.52;;;;;;;;;;11394726;25;20760;-60
2024/04/16 20:25:13;;;;;;;7.72;1.27;;;;;;;;;;11382821;25;20691;-61
2024/04/16 20:30:17;;;;;;;9.75;2.17;;;;;;;;;;11395108;25;20028;-61
2024/04/16 20:35:25;;;;;;;12.68;2.38;;;;;;;;;;11388546;25;20819;-61
2024/04/16 20:40:29;;;;;;;11.73;2.67;;;;;;;;;;11399889;25;20440;-63
2024/04/16 20:45:34;;;;;;;11.18;3.15;;;;;;;;;;11389329;25;20149;-62
2024/04/16 20:50:42;;;;;;;10.15;2.17;;;;;;;;;;11399932;25;20107;-62
2024/04/16 20:55:47;;;;;;;8.88;1.77;;;;;;;;;;11398212;25;21238;-61
2024/04/16 21:00:53;;;;;;;7.00;1.70;;;;;;;;;;11407257;25;20062;-60
2024/04/16 21:06:02;;;;;;;7.70;2.17;;;;;;;;;;11413665;25;20019;-60
2024/04/16 21:11:07;;;;;;;10.02;2.83;;;;;;;;;;11430024;25;20465;-61
2024/04/16 21:16:11;;;;;;;17.25;2.67;;;;;;;;;;11422017;25;20013;-60
2024/04/16 21:21:22;;;;;;;10.43;4.15;;;;;;;;;;11403591;25;20013;-62
2024/04/16 21:26:27;;;;;;;7.75;2.03;;;;;;;;;;11405095;25;20082;-60
2024/04/16 21:31:32;;;;;;;13.90;2.00;;;;;;;;;;11412497;25;20013;-62
2024/04/16 21:36:40;;;;;;;10.38;2.42;;;;;;;;;;11408843;25;20009;-60
2024/04/16 21:41:45;;;;;;;9.77;2.25;;;;;;;;;;11415254;25;20813;-60
2024/04/16 21:46:53;;;;;;;8.02;2.50;;;;;;;;;;11410945;25;20045;-58
2024/04/16 21:52:00;;;;;;;12.13;2.28;;;;;;;;;;11417398;25;20016;-64
2024/04/16 21:57:04;;;;;;;13.18;1.90;;;;;;;;;;11376278;25;20417;-61
2024/04/16 22:02:09;;;;;;;15.73;3.67;;;;;;;;;;11410438;25;20500;-60
2024/04/16 22:07:21;;;;;;;13.52;3.30;;;;;;;;;;11406909;25;20339;-61
2024/04/16 22:12:25;;;;;;;14.30;2.37;;;;;;;;;;11395770;25;20468;-61
2024/04/16 22:17:51;;;;;;;12.32;2.70;;;;;;;;;;11407043;25;20352;-60
2024/04/16 22:23:01;;;;;;;13.63;2.85;;;;;;;;;;11408553;25;20387;-60
2024/04/16 22:28:06;;;;;;;15.60;3.25;;;;;;;;;;11396733;25;20866;-61
2024/04/16 22:33:13;;;;;;;13.85;2.90;;;;;;;;;;11409220;25;20005;-61
2024/04/16 22:38:23;;;;;;;15.80;3.35;;;;;;;;;;11406118;25;20032;-61
2024/04/16 22:43:28;;;;;;;18.10;2.33;;;;;;;;;;11396574;25;20005;-61
2024/04/16 22:48:37;;;;;;;14.93;4.03;;;;;;;;;;11405264;25;20013;-60
2024/04/16 22:53:46;;;;;;;14.57;3.83;;;;;;;;;;11399557;25;20006;-61
2024/04/16 22:58:50;;;;;;;11.60;2.28;;;;;;;;;;11400568;25;20021;-62
2024/04/16 23:03:57;;;;;;;14.10;2.60;;;;;;;;;;11401251;25;20027;-59
2024/04/16 23:09:04;;;;;;;14.50;2.72;;;;;;;;;;11395767;25;20559;-60
2024/04/16 23:14:08;;;;;;;14.40;2.85;;;;;;;;;;11405830;25;20811;-61
2024/04/16 23:19:14;;;;;;;14.75;2.78;;;;;;;;;;11401339;25;20472;-60
2024/04/16 23:24:21;;;;;;;8.35;2.03;;;;;;;;;;11399820;25;20005;-62
2024/04/16 23:29:29;;;;;;;5.13;2.15;;;;;;;;;;11406086;25;20453;-61
2024/04/16 23:34:33;;;;;;;10.18;1.98;;;;;;;;;;11404110;25;20037;-60
2024/04/16 23:39:40;;;;;;;6.07;1.30;;;;;;;;;;11390573;25;20039;-60
2024/04/16 23:44:44;;;;;;;5.13;1.15;;;;;;;;;;11398319;25;20056;-60
2024/04/16 23:49:51;;;;;;;10.57;1.35;;;;;;;;;;11398649;25;20001;-60
2024/04/16 23:54:59;;;;;;;8.02;0.95;;;;;;;;;;11392986;25;20466;-60
